Time;durP1;ratioP1;P1;durP2;ratioP2;P2;SDS_P1;SDS_P2;PMS_P1;PMS_P2;Temp;Humidity;BMP_temperature;BMP_pressure;BME280_temperature;BME280_humidity;BME280_pressure;Samples;Min_cycle;Max_cycle;Signal;HPM_P1;HPM_P2
2023/08/12 00:02:22;;;;;;;2.33;0.80;;;;;;;16.70;80.07;100270.66;5096289;28;20059;-66
2023/08/12 00:04:51;;;;;;;0.65;0.60;;;;;;;16.70;80.00;100258.63;5096574;28;20288;-65
2023/08/12 00:07:20;;;;;;;1.10;1.00;;;;;;;16.66;80.04;100261.28;5096318;28;20032;-66
2023/08/12 00:09:49;;;;;;;1.20;1.10;;;;;;;16.69;80.13;100261.25;5096283;28;20275;-67
2023/08/12 00:12:18;;;;;;;;;;;;;;;16.76;79.89;100260.25;5096891;28;20439;-66
2023/08/12 00:14:47;;;;;;;1.08;0.80;;;;;;;16.80;79.93;100261.91;5096465;28;20026;-67
2023/08/12 00:17:16;;;;;;;0.60;0.60;;;;;;;16.80;79.81;100253.31;5096132;28;20123;-64
2023/08/12 00:19:47;;;;;;;1.98;1.13;;;;;;;16.81;79.67;100253.31;5096047;28;20131;-66
2023/08/12 00:22:16;;;;;;;2.05;0.98;;;;;;;16.71;79.55;100254.31;5096365;28;20075;-66
2023/08/12 00:24:45;;;;;;;1.40;1.30;;;;;;;16.64;79.99;100255.31;5095897;28;20055;-67
2023/08/12 00:27:14;;;;;;;1.55;1.05;;;;;;;16.63;79.83;100248.44;5096281;28;20063;-67
2023/08/12 00:29:43;;;;;;;0.70;0.63;;;;;;;16.66;79.81;100248.41;5094701;28;20051;-67
2023/08/12 00:32:12;;;;;;;2.72;0.90;;;;;;;16.68;79.64;100251.78;5095935;28;20040;-67
2023/08/12 00:34:41;;;;;;;0.90;0.75;;;;;;;16.62;79.59;100241.59;5094872;28;20390;-66
2023/08/12 00:37:12;;;;;;;0.75;0.73;;;;;;;16.63;79.45;100243.28;5095715;28;20048;-66
2023/08/12 00:39:41;;;;;;;0.70;0.70;;;;;;;16.62;79.50;100252.78;5095778;28;20043;-66
2023/08/12 00:42:11;;;;;;;0.82;0.70;;;;;;;16.56;79.39;100244.25;5095648;28;20048;-66
2023/08/12 00:44:39;;;;;;;0.60;0.60;;;;;;;16.54;79.30;100239.13;5095541;28;20044;-65
2023/08/12 00:47:10;;;;;;;0.95;0.90;;;;;;;16.57;79.25;100246.84;5095369;28;20079;-64
2023/08/12 00:49:43;;;;;;;1.83;1.30;;;;;;;16.53;78.97;100241.75;5096027;28;20036;-65
2023/08/12 00:52:14;;;;;;;1.35;0.57;;;;;;;16.50;78.63;100246.91;5095426;28;20044;-64
2023/08/12 00:54:44;;;;;;;1.70;1.42;;;;;;;16.38;78.98;100252.25;5094353;28;20405;-65
2023/08/12 00:57:12;;;;;;;1.15;1.05;;;;;;;16.41;79.01;100236.75;5095260;28;20044;-67
2023/08/12 00:59:45;;;;;;;1.33;1.23;;;;;;;16.37;78.78;100242.81;5094077;28;20038;-67
2023/08/12 01:02:14;;;;;;;1.48;0.82;;;;;;;16.33;78.63;100239.44;5094059;28;20075;-66
2023/08/12 01:04:43;;;;;;;0.60;0.60;;;;;;;16.30;78.98;100242.06;5095184;28;20068;-65
2023/08/12 01:07:14;;;;;;;0.88;0.82;;;;;;;16.30;78.78;100239.47;5093938;28;20038;-67
2023/08/12 01:09:43;;;;;;;0.80;0.70;;;;;;;16.18;79.07;100243.97;5095545;28;20040;-66
2023/08/12 01:12:18;;;;;;;2.17;1.57;;;;;;;16.08;78.99;100238.94;5093864;28;20050;-66
2023/08/12 01:14:56;;;;;;;0.75;0.70;;;;;;;16.07;78.97;100246.69;5095273;28;20329;-65
2023/08/12 01:17:29;;;;;;;0.95;0.80;;;;;;;16.06;79.14;100239.84;5095042;28;20064;-66
2023/08/12 01:20:02;;;;;;;0.65;0.60;;;;;;;16.04;78.96;100239.00;5093785;28;20047;-64
2023/08/12 01:22:36;;;;;;;0.75;0.65;;;;;;;16.10;79.17;100232.03;5093984;28;20398;-65
2023/08/12 01:25:07;;;;;;;0.80;0.80;;;;;;;16.10;78.85;100231.19;5095067;28;20121;-66
2023/08/12 01:27:37;;;;;;;0.52;0.52;;;;;;;16.05;79.17;100233.81;5093846;28;20116;-65
2023/08/12 01:30:10;;;;;;;0.90;0.68;;;;;;;15.93;79.46;100234.00;5094678;28;20044;-66
2023/08/12 01:32:46;;;;;;;1.02;0.93;;;;;;;15.89;79.55;100232.34;5094631;28;20097;-66
2023/08/12 01:35:18;;;;;;;0.70;0.70;;;;;;;15.85;79.48;100235.84;5094586;28;20127;-66
2023/08/12 01:37:51;;;;;;;0.70;0.70;;;;;;;15.76;79.73;100232.53;5095000;28;20055;-67
2023/08/12 01:40:22;;;;;;;1.10;1.05;;;;;;;15.73;80.04;100225.69;5093944;28;20044;-67
2023/08/12 01:42:53;;;;;;;0.63;0.63;;;;;;;15.82;80.35;100225.56;5094472;28;20054;-67
2023/08/12 01:45:23;;;;;;;0.65;0.65;;;;;;;15.86;80.18;100232.38;5094471;28;20127;-67
2023/08/12 01:47:53;;;;;;;0.65;0.65;;;;;;;15.81;80.30;100231.59;5127336;27;20056;-67
2023/08/12 01:50:23;;;;;;;0.93;0.88;;;;;;;15.85;79.97;100230.69;5094904;28;20401;-67
2023/08/12 01:52:54;;;;;;;2.40;1.35;;;;;;;15.82;79.81;100230.72;5076499;28;20081;-67
2023/08/12 01:55:24;;;;;;;0.37;0.37;;;;;;;15.78;79.98;100229.06;5093023;28;20067;-67
2023/08/12 01:57:53;;;;;;;0.70;0.70;;;;;;;15.78;79.83;100238.50;5094443;28;20071;-64
2023/08/12 02:00:22;;;;;;;0.57;0.57;;;;;;;15.71;80.19;100237.75;5094303;28;20044;-66
2023/08/12 02:02:51;;;;;;;0.70;0.63;;;;;;;15.72;80.38;100239.44;5093020;28;20504;-64
2023/08/12 02:05:20;;;;;;;0.50;0.50;;;;;;;15.77;80.40;100231.66;5092905;28;20143;-66
2023/08/12 02:07:51;;;;;;;1.35;1.25;;;;;;;15.75;80.17;100243.69;5093530;28;20676;-65
2023/08/12 02:10:20;;;;;;;0.60;0.60;;;;;;;15.69;80.20;100239.47;5094431;28;20389;-67
2023/08/12 02:12:50;;;;;;;1.20;1.05;;;;;;;15.65;80.43;100242.94;5094059;28;20324;-66
2023/08/12 02:15:20;;;;;;;1.20;1.10;;;;;;;15.68;80.55;100242.94;5094242;28;20132;-67
2023/08/12 02:17:49;;;;;;;0.68;0.68;;;;;;;15.68;80.28;100242.94;5094138;28;20401;-66
2023/08/12 02:20:19;;;;;;;0.47;0.47;;;;;;;15.72;80.32;100247.16;5093978;28;20052;-67
2023/08/12 02:22:48;;;;;;;0.90;0.87;;;;;;;15.67;80.15;100243.78;5093916;28;20122;-67
2023/08/12 02:25:16;;;;;;;1.63;1.47;;;;;;;15.63;80.31;100243.84;5093813;28;20055;-67
2023/08/12 02:27:45;;;;;;;1.73;1.35;;;;;;;15.65;79.96;100248.09;5093769;28;20288;-66
2023/08/12 02:30:16;;;;;;;0.80;0.80;;;;;;;15.65;79.90;100247.25;5092865;28;20134;-64
2023/08/12 02:32:46;;;;;;;1.67;1.13;;;;;;;15.65;80.04;100248.09;5093734;28;20067;-66
2023/08/12 02:35:18;;;;;;;0.50;0.50;;;;;;;15.64;80.36;100246.41;5094274;28;20048;-66
2023/08/12 02:37:49;;;;;;;0.60;0.60;;;;;;;15.59;80.45;100248.19;5093959;28;20063;-66
2023/08/12 02:40:18;;;;;;;0.60;0.60;;;;;;;15.64;79.81;100256.72;5092476;28;20101;-67
2023/08/12 02:42:46;;;;;;;0.60;0.60;;;;;;;15.61;80.21;100251.59;5093587;28;20101;-67
2023/08/12 02:45:17;;;;;;;0.70;0.70;;;;;;;15.58;80.31;100267.06;5092012;28;20049;-67
2023/08/12 02:47:46;;;;;;;2.20;0.95;;;;;;;15.58;80.54;100259.34;5093522;28;20127;-67
2023/08/12 02:50:15;;;;;;;;;;;;;;;15.48;80.22;100265.44;5093885;28;20044;-66
2023/08/12 02:52:44;;;;;;;0.70;0.70;;;;;;;15.41;80.40;100263.78;5126322;28;19924;-67
2023/08/12 02:55:13;;;;;;;1.85;1.13;;;;;;;15.46;80.86;100256.91;5126256;28;20047;-67
2023/08/12 02:57:42;;;;;;;0.67;0.67;;;;;;;15.43;80.64;100260.31;5093484;28;20110;-67
2023/08/12 03:00:13;;;;;;;0.50;0.50;;;;;;;15.40;81.12;100262.09;5092226;28;20277;-67
2023/08/12 03:02:45;;;;;;;1.17;1.10;;;;;;;15.31;80.82;100263.03;5093587;28;20300;-65
2023/08/12 03:05:14;;;;;;;3.10;1.23;;;;;;;15.23;81.30;100274.28;5093458;28;20097;-66
2023/08/12 03:07:43;;;;;;;0.50;0.50;;;;;;;15.10;81.38;100267.53;5093293;28;20044;-66
2023/08/12 03:10:13;;;;;;;0.65;0.60;;;;;;;14.99;81.31;100269.38;5093312;28;20047;-67
2023/08/12 03:12:42;;;;;;;0.75;0.75;;;;;;;14.93;81.68;100266.84;5092233;28;20056;-67
2023/08/12 03:15:12;;;;;;;1.13;1.05;;;;;;;14.92;82.00;100270.28;5092217;28;20126;-67
2023/08/12 03:17:41;;;;;;;0.52;0.52;;;;;;;14.89;82.11;100272.88;5092070;28;20040;-68
2023/08/12 03:20:12;;;;;;;0.77;0.77;;;;;;;14.89;82.01;100272.88;5094197;28;20043;-67
2023/08/12 03:22:42;;;;;;;0.60;0.60;;;;;;;14.84;82.11;100264.34;5097547;28;20113;-64
2023/08/12 03:25:14;;;;;;;1.13;1.05;;;;;;;14.70;82.33;100261.91;5096006;28;20436;-65
2023/08/12 03:27:45;;;;;;;0.68;0.60;;;;;;;14.67;82.74;100267.94;5097090;28;20047;-66
2023/08/12 03:30:15;;;;;;;;;;;;;;;14.68;82.76;100258.50;5113480;28;20466;-65
2023/08/12 03:32:45;;;;;;;2.60;1.67;;;;;;;14.66;82.83;100253.38;5096090;28;19930;-65
2023/08/12 03:35:17;;;;;;;0.65;0.65;;;;;;;14.64;82.67;100257.66;5096991;28;20048;-65
2023/08/12 03:37:48;;;;;;;0.57;0.57;;;;;;;14.65;83.06;100264.53;5096906;28;20040;-65
2023/08/12 03:40:16;;;;;;;0.77;0.77;;;;;;;14.62;82.99;100264.53;5095625;28;20052;-67
2023/08/12 03:42:47;;;;;;;1.13;0.98;;;;;;;14.64;83.28;100264.50;5097194;28;20044;-67
2023/08/12 03:45:17;;;;;;;0.75;0.75;;;;;;;14.68;83.39;100266.22;5096781;28;20072;-66
2023/08/12 03:47:47;;;;;;;1.33;1.23;;;;;;;14.80;83.51;100268.69;5096623;28;20051;-66
2023/08/12 03:50:19;;;;;;;0.77;0.77;;;;;;;14.93;83.04;100261.69;5096689;28;20044;-66
2023/08/12 03:52:49;;;;;;;0.73;0.65;;;;;;;15.03;82.74;100260.75;5096627;28;20135;-66
2023/08/12 03:55:18;;;;;;;1.10;0.88;;;;;;;15.03;82.77;100256.47;5095363;28;20090;-66
2023/08/12 03:57:47;;;;;;;2.33;1.57;;;;;;;15.10;82.90;100263.25;5129536;27;20044;-66
2023/08/12 04:00:16;;;;;;;0.85;0.80;;;;;;;15.14;82.81;100259.78;5112448;28;20502;-66
2023/08/12 04:02:45;;;;;;;1.17;0.60;;;;;;;15.21;82.63;100255.44;5096364;28;20044;-67
2023/08/12 04:05:14;;;;;;;1.65;0.75;;;;;;;15.25;82.23;100257.09;5095180;28;20123;-68
2023/08/12 04:07:44;;;;;;;0.70;0.70;;;;;;;15.22;82.37;100262.28;5095164;28;20040;-67
2023/08/12 04:10:13;;;;;;;1.08;0.80;;;;;;;15.26;82.25;100259.66;5095090;28;20048;-67
2023/08/12 04:12:45;;;;;;;0.50;0.50;;;;;;;15.29;81.79;100266.50;5096125;28;20063;-66
2023/08/12 04:15:14;;;;;;;0.80;0.80;;;;;;;15.32;82.15;100264.75;5097267;28;20044;-67
2023/08/12 04:17:43;;;;;;;0.60;0.60;;;;;;;15.38;81.78;100254.38;5095025;28;20040;-66
2023/08/12 04:20:12;;;;;;;1.67;1.07;;;;;;;15.41;81.92;100253.50;5094974;28;20280;-67
2023/08/12 04:22:41;;;;;;;0.90;0.80;;;;;;;15.41;81.55;100249.22;5129003;27;20036;-67
2023/08/12 04:25:11;;;;;;;0.63;0.63;;;;;;;15.48;82.06;100255.16;5096019;28;20050;-67
2023/08/12 04:27:40;;;;;;;0.85;0.77;;;;;;;15.58;82.11;100250.75;5095948;28;20071;-66
2023/08/12 04:30:10;;;;;;;0.80;0.80;;;;;;;15.62;81.63;100250.69;5094753;28;20064;-66
2023/08/12 04:32:39;;;;;;;0.50;0.50;;;;;;;15.65;81.75;100248.09;5094280;28;20079;-66
2023/08/12 04:35:10;;;;;;;0.80;0.80;;;;;;;15.76;81.65;100250.56;5095803;28;20117;-68
2023/08/12 04:37:40;;;;;;;0.82;0.82;;;;;;;15.83;81.60;100260.75;5096062;28;20040;-67
2023/08/12 04:40:12;;;;;;;0.40;0.40;;;;;;;15.88;81.52;100251.22;5096330;28;20051;-67
2023/08/12 04:42:42;;;;;;;0.60;0.60;;;;;;;15.99;81.07;100254.53;5095932;28;20482;-65
2023/08/12 04:45:11;;;;;;;5.60;1.95;;;;;;;16.04;81.32;100249.31;5094435;28;20097;-66
2023/08/12 04:47:40;;;;;;;1.57;0.87;;;;;;;16.09;81.06;100250.97;5094316;28;20040;-67
2023/08/12 04:50:11;;;;;;;1.05;1.02;;;;;;;16.14;81.30;100252.59;5095857;28;20054;-68
2023/08/12 04:52:40;;;;;;;0.68;0.57;;;;;;;16.18;80.82;100249.97;5094200;28;20043;-66
2023/08/12 04:55:11;;;;;;;0.70;0.70;;;;;;;16.26;80.75;100242.13;5094225;28;20379;-67
2023/08/12 04:57:43;;;;;;;0.50;0.50;;;;;;;16.33;80.56;100243.75;5095695;28;20039;-68
2023/08/12 05:00:13;;;;;;;0.95;0.82;;;;;;;16.46;80.35;100253.00;5094080;28;20131;-66
2023/08/12 05:02:42;;;;;;;0.95;0.90;;;;;;;16.58;80.10;100255.41;5093906;28;20134;-66
2023/08/12 05:05:12;;;;;;;0.98;0.80;;;;;;;16.69;80.00;100248.34;5095472;28;20040;-68
2023/08/12 05:07:44;;;;;;;0.80;0.73;;;;;;;16.77;79.50;100251.66;5095289;28;20043;-69
2023/08/12 05:10:14;;;;;;;0.75;0.75;;;;;;;16.81;79.40;100255.03;5095100;28;20048;-65
2023/08/12 05:12:44;;;;;;;1.70;1.05;;;;;;;16.88;79.17;100257.47;5093816;28;20505;-67
2023/08/12 05:15:12;;;;;;;1.95;1.20;;;;;;;16.93;78.62;100253.09;5095009;28;20105;-68
2023/08/12 05:17:41;;;;;;;0.50;0.50;;;;;;;17.03;78.78;100249.50;5095599;28;20526;-68
2023/08/12 05:20:12;;;;;;;1.10;1.00;;;;;;;17.08;78.36;100252.84;5093720;28;20127;-68
2023/08/12 05:22:42;;;;;;;1.25;1.13;;;;;;;17.17;78.08;100252.66;5094924;28;20508;-67
2023/08/12 05:25:11;;;;;;;1.20;1.08;;;;;;;17.27;77.58;100249.03;5093547;28;20093;-67
2023/08/12 05:27:41;;;;;;;0.60;0.60;;;;;;;17.36;77.59;100248.88;5094676;28;20036;-66
2023/08/12 05:30:11;;;;;;;0.65;0.65;;;;;;;17.40;76.97;100247.91;5094722;28;20098;-68
2023/08/12 05:32:40;;;;;;;1.50;1.13;;;;;;;17.48;76.77;100249.50;5094648;28;20070;-68
2023/08/12 05:35:10;;;;;;;2.22;1.80;;;;;;;17.54;76.36;100257.16;5094562;28;20070;-65
2023/08/12 05:37:39;;;;;;;0.63;0.63;;;;;;;17.69;75.97;100262.00;5094849;28;20047;-69
2023/08/12 05:40:09;;;;;;;31.67;3.40;;;;;;;17.78;75.76;100256.66;5095149;28;20118;-68
2023/08/12 05:42:38;;;;;;;0.60;0.60;;;;;;;17.90;75.47;100266.75;5093958;28;20300;-67
2023/08/12 05:45:10;;;;;;;0.90;0.73;;;;;;;17.97;75.18;100257.97;5094112;28;20070;-69
2023/08/12 05:47:39;;;;;;;1.35;1.15;;;;;;;18.00;75.16;100268.22;5094368;28;20048;-68
2023/08/12 05:50:09;;;;;;;1.40;1.07;;;;;;;18.00;75.09;100257.91;5094801;28;20032;-66
2023/08/12 05:52:38;;;;;;;1.10;1.00;;;;;;;18.09;75.02;100261.13;5094569;28;20028;-69
2023/08/12 05:55:08;;;;;;;2.08;1.35;;;;;;;18.13;74.79;100261.94;5094209;28;20040;-67
2023/08/12 05:57:36;;;;;;;3.67;1.27;;;;;;;18.20;74.53;100268.66;5094575;28;20040;-68
2023/08/12 06:00:08;;;;;;;1.80;1.37;;;;;;;18.21;74.52;100262.59;5094182;28;20525;-67
2023/08/12 06:02:40;;;;;;;0.70;0.70;;;;;;;18.35;74.35;100257.97;5094168;28;20048;-65
2023/08/12 06:05:10;;;;;;;0.60;0.60;;;;;;;18.49;74.11;100263.72;5094032;28;20039;-67
2023/08/12 06:07:39;;;;;;;1.15;1.05;;;;;;;18.68;74.05;100259.78;5094066;28;20472;-68
2023/08/12 06:10:08;;;;;;;0.80;0.80;;;;;;;18.82;73.73;100256.00;5094203;28;20067;-67
2023/08/12 06:12:38;;;;;;;1.38;1.00;;;;;;;18.93;73.08;100259.19;5094132;28;20066;-68
2023/08/12 06:15:09;;;;;;;2.50;1.60;;;;;;;18.97;72.53;100261.66;5094092;28;20118;-69
2023/08/12 06:17:39;;;;;;;0.50;0.50;;;;;;;19.06;71.94;100260.56;5094151;28;20428;-67
2023/08/12 06:20:09;;;;;;;0.82;0.80;;;;;;;19.18;71.71;100255.06;5093118;28;20071;-69
2023/08/12 06:22:37;;;;;;;0.50;0.50;;;;;;;19.21;71.35;100253.25;5093754;28;20052;-68
2023/08/12 06:25:07;;;;;;;0.55;0.55;;;;;;;19.28;71.00;100262.56;5093852;28;20036;-67
2023/08/12 06:27:36;;;;;;;1.20;0.70;;;;;;;19.37;70.90;100251.13;5094275;28;20048;-68
2023/08/12 06:30:06;;;;;;;1.93;0.93;;;;;;;19.53;70.88;100256.75;5093783;28;20129;-67
2023/08/12 06:32:37;;;;;;;1.08;0.98;;;;;;;19.71;70.58;100257.06;5093611;28;20056;-65
2023/08/12 06:35:06;;;;;;;0.57;0.57;;;;;;;19.91;70.20;100253.91;5093948;28;20051;-68
2023/08/12 06:37:35;;;;;;;;;;;;;;;20.01;69.20;100248.38;5094069;28;20040;-69
2023/08/12 06:40:05;;;;;;;1.05;1.00;;;;;;;20.06;68.47;100248.22;5093610;28;19927;-68
2023/08/12 06:42:34;;;;;;;0.93;0.90;;;;;;;20.15;67.94;100252.31;5093878;28;20043;-68
2023/08/12 06:45:03;;;;;;;1.70;1.43;;;;;;;20.25;67.66;100243.38;5093572;28;20044;-68
2023/08/12 06:47:33;;;;;;;1.10;1.02;;;;;;;20.38;67.34;100255.06;5093879;28;20044;-68
2023/08/12 06:50:03;;;;;;;1.85;1.23;;;;;;;20.42;66.60;100256.69;5093510;28;20032;-68
2023/08/12 06:52:32;;;;;;;1.67;0.95;;;;;;;20.52;66.68;100247.69;5093473;28;20062;-68
2023/08/12 06:55:01;;;;;;;0.52;0.52;;;;;;;20.71;66.28;100248.78;5095993;28;20115;-68
2023/08/12 06:57:30;;;;;;;1.50;1.40;;;;;;;20.88;66.25;100246.47;5098052;28;20058;-67
2023/08/12 06:59:59;;;;;;;0.63;0.63;;;;;;;21.01;65.93;100250.38;5097599;28;20048;-68
2023/08/12 07:02:28;;;;;;;0.88;0.88;;;;;;;21.12;64.99;100247.41;5097719;28;20036;-68
2023/08/12 07:04:57;;;;;;;0.77;0.70;;;;;;;21.21;64.35;100258.34;5098166;28;20043;-69
2023/08/12 07:07:27;;;;;;;0.82;0.73;;;;;;;21.22;63.98;100257.44;5097450;28;20127;-68
2023/08/12 07:09:56;;;;;;;1.27;1.15;;;;;;;21.29;63.98;100245.94;5098115;28;20457;-66
2023/08/12 07:12:25;;;;;;;0.90;0.90;;;;;;;21.42;63.87;100248.09;5097369;28;20149;-68
2023/08/12 07:14:54;;;;;;;0.88;0.88;;;;;;;21.42;64.10;100245.50;5097507;28;20036;-68
2023/08/12 07:17:23;;;;;;;0.98;0.88;;;;;;;21.48;63.72;100253.06;5097267;28;20040;-68
2023/08/12 07:19:52;;;;;;;;;;;;;;;21.58;63.53;100244.88;5097496;28;20494;-68
2023/08/12 07:22:21;;;;;;;0.65;0.60;;;;;;;21.65;63.08;100248.97;5097548;28;19920;-68
2023/08/12 07:24:52;;;;;;;1.50;1.40;;;;;;;21.73;62.77;100248.69;5097319;28;20489;-67
2023/08/12 07:27:21;;;;;;;0.60;0.60;;;;;;;21.81;62.61;100241.47;5097146;28;20040;-68
2023/08/12 07:29:50;;;;;;;0.60;0.60;;;;;;;21.88;62.32;100243.78;5097052;28;20040;-67
2023/08/12 07:32:18;;;;;;;1.10;1.00;;;;;;;21.96;62.26;100251.28;5096935;28;20048;-68
2023/08/12 07:34:47;;;;;;;22.60;1.63;;;;;;;22.01;61.96;100250.22;5097001;28;20125;-69
2023/08/12 07:37:16;;;;;;;0.80;0.70;;;;;;;22.08;61.30;100250.81;5096871;28;20090;-68
2023/08/12 07:39:45;;;;;;;0.50;0.50;;;;;;;22.21;61.59;100249.44;5096917;28;20071;-67
2023/08/12 07:42:15;;;;;;;1.02;1.02;;;;;;;22.35;61.72;100247.16;5097273;28;20424;-68
2023/08/12 07:44:44;;;;;;;0.75;0.68;;;;;;;22.42;61.58;100240.78;5097067;28;20055;-68
2023/08/12 07:47:15;;;;;;;0.65;0.65;;;;;;;22.56;61.20;100245.44;5096599;28;20056;-68
2023/08/12 07:49:44;;;;;;;0.60;0.60;;;;;;;22.66;60.96;100232.03;5097067;28;20119;-68
2023/08/12 07:52:13;;;;;;;1.33;1.08;;;;;;;22.79;60.44;100239.31;5096623;28;20036;-70
2023/08/12 07:54:42;;;;;;;1.90;0.80;;;;;;;22.85;59.50;100241.66;5096515;28;20048;-68
2023/08/12 07:57:11;;;;;;;0.65;0.65;;;;;;;22.85;59.28;100233.84;5096530;28;20071;-69
2023/08/12 07:59:41;;;;;;;0.90;0.90;;;;;;;22.83;59.17;100233.06;5096406;28;20042;-68
2023/08/12 08:02:10;;;;;;;0.68;0.68;;;;;;;22.94;59.12;100238.69;5096666;28;20481;-69
2023/08/12 08:04:40;;;;;;;1.17;1.02;;;;;;;23.05;58.80;100231.25;5096361;28;20131;-68
2023/08/12 08:07:09;;;;;;;0.82;0.82;;;;;;;23.19;58.20;100226.28;5095465;28;20040;-69
2023/08/12 08:09:38;;;;;;;0.50;0.50;;;;;;;23.34;57.14;100233.44;5096764;28;20148;-68
2023/08/12 08:12:09;;;;;;;0.50;0.50;;;;;;;23.39;56.57;100218.50;5096477;28;20040;-67
2023/08/12 08:14:39;;;;;;;0.73;0.73;;;;;;;23.43;56.32;100227.84;5096323;28;20490;-68
2023/08/12 08:17:09;;;;;;;0.70;0.70;;;;;;;23.48;55.87;100220.69;5096435;28;20512;-67
2023/08/12 08:19:38;;;;;;;0.77;0.77;;;;;;;23.54;55.96;100214.34;5096203;28;20054;-68
2023/08/12 08:22:08;;;;;;;0.93;0.85;;;;;;;23.71;56.70;100217.88;5096361;28;20044;-67
2023/08/12 08:24:36;;;;;;;;;;;;;;;23.93;56.97;100218.56;5096392;28;20043;-68
2023/08/12 08:27:06;;;;;;;3.10;1.77;;;;;;;24.02;57.13;100216.47;5096369;28;20027;-70
2023/08/12 08:29:34;;;;;;;0.50;0.50;;;;;;;24.04;56.39;100219.84;5095813;28;20048;-69
2023/08/12 08:32:03;;;;;;;0.52;0.52;;;;;;;24.19;56.07;100213.91;5094616;28;20048;-69
2023/08/12 08:34:34;;;;;;;1.40;1.13;;;;;;;24.34;55.32;100218.41;5095771;28;20097;-68
2023/08/12 08:37:03;;;;;;;0.73;0.73;;;;;;;24.46;55.60;100207.34;5096118;28;20050;-68
2023/08/12 08:39:32;;;;;;;0.68;0.68;;;;;;;24.60;55.73;100204.91;5095697;28;20048;-66
2023/08/12 08:42:01;;;;;;;1.05;1.00;;;;;;;24.60;55.16;100210.13;5095658;28;20039;-68
2023/08/12 08:44:31;;;;;;;;;;;;;;;24.74;55.42;100202.44;5095997;28;20490;-67
2023/08/12 08:47:00;;;;;;;0.80;0.75;;;;;;;24.77;55.20;100202.34;5095406;28;19959;-68
2023/08/12 08:49:31;;;;;;;0.65;0.65;;;;;;;24.92;55.71;100213.78;5095399;28;20055;-66
2023/08/12 08:52:02;;;;;;;0.80;0.80;;;;;;;24.93;54.28;100208.47;5095491;28;20040;-69
2023/08/12 08:54:31;;;;;;;0.40;0.40;;;;;;;24.91;53.68;100206.84;5095477;28;20067;-68
2023/08/12 08:57:00;;;;;;;1.15;0.90;;;;;;;24.96;53.66;100216.16;5096271;28;20090;-68
2023/08/12 08:59:38;;;;;;;0.57;0.57;;;;;;;25.02;53.46;100202.78;5095648;28;20044;-66
2023/08/12 09:02:14;;;;;;;0.50;0.50;;;;;;;25.16;53.96;100208.13;5095314;28;20124;-68
2023/08/12 09:04:44;;;;;;;0.55;0.55;;;;;;;25.14;53.59;100204.75;5095275;28;20044;-68
2023/08/12 09:07:15;;;;;;;0.50;0.50;;;;;;;25.17;53.58;100199.34;5095704;28;20029;-68
2023/08/12 09:09:47;;;;;;;1.20;1.10;;;;;;;25.20;52.93;100207.03;5095057;28;20052;-67
2023/08/12 09:12:18;;;;;;;0.50;0.50;;;;;;;25.33;52.78;100206.41;5095123;28;20051;-68
2023/08/12 09:14:47;;;;;;;0.82;0.70;;;;;;;25.35;52.95;100201.94;5095141;28;20044;-69
2023/08/12 09:17:16;;;;;;;0.68;0.68;;;;;;;25.45;52.09;100200.56;5094410;28;20040;-69
2023/08/12 09:19:45;;;;;;;;;;;;;;;25.44;52.01;100193.59;5094797;28;20040;-68
2023/08/12 09:22:15;;;;;;;0.80;0.80;;;;;;;25.54;52.24;100200.06;5094897;28;19920;-68
2023/08/12 09:24:44;;;;;;;1.00;0.73;;;;;;;25.73;52.04;100204.22;5094825;28;20040;-67
2023/08/12 09:27:18;;;;;;;0.40;0.40;;;;;;;25.90;51.82;100198.06;5094889;28;20040;-68
2023/08/12 09:29:47;;;;;;;0.70;0.70;;;;;;;26.06;51.15;100192.81;5095004;28;20074;-67
2023/08/12 09:32:20;;;;;;;1.20;1.10;;;;;;;26.12;49.58;100200.34;5094657;28;20044;-68
2023/08/12 09:34:51;;;;;;;0.60;0.60;;;;;;;26.10;49.05;100195.19;5094715;28;20043;-70
2023/08/12 09:37:23;;;;;;;0.40;0.40;;;;;;;26.16;49.27;100189.63;5094570;28;20132;-69
2023/08/12 09:39:53;;;;;;;0.98;0.93;;;;;;;26.20;48.87;100190.31;5094860;28;20432;-69
2023/08/12 09:42:22;;;;;;;0.95;0.60;;;;;;;26.23;48.15;100179.63;5094484;28;20397;-69
2023/08/12 09:44:51;;;;;;;0.45;0.45;;;;;;;26.30;47.70;100171.34;5094776;28;20043;-69
2023/08/12 09:47:19;;;;;;;;;;;;;;;26.38;47.89;100177.00;5093357;28;20090;-68
2023/08/12 09:49:48;;;;;;;0.70;0.70;;;;;;;26.49;48.27;100179.84;5094226;28;19973;-68
2023/08/12 09:52:18;;;;;;;0.67;0.67;;;;;;;26.65;47.92;100173.72;5094332;28;20039;-67
2023/08/12 09:54:49;;;;;;;0.40;0.40;;;;;;;26.63;47.16;100179.88;5094259;28;20360;-68
2023/08/12 09:57:21;;;;;;;0.45;0.45;;;;;;;26.68;47.02;100163.06;5110351;28;20490;-68
2023/08/12 09:59:51;;;;;;;0.65;0.65;;;;;;;26.72;47.33;100172.41;5094166;28;20494;-68
2023/08/12 10:02:21;;;;;;;0.50;0.50;;;;;;;26.68;47.26;100155.19;5094525;28;20453;-67
2023/08/12 10:04:55;;;;;;;0.50;0.50;;;;;;;26.66;46.93;100151.84;5094023;28;20458;-68
2023/08/12 10:07:26;;;;;;;0.90;0.77;;;;;;;26.79;47.10;100152.81;5094362;28;20059;-69
2023/08/12 10:09:57;;;;;;;0.70;0.65;;;;;;;26.95;46.93;100149.16;5094552;28;20048;-67
2023/08/12 10:12:26;;;;;;;1.00;0.75;;;;;;;26.98;46.32;100145.53;5093960;28;20048;-67
2023/08/12 10:14:55;;;;;;;0.60;0.60;;;;;;;27.12;46.49;100150.75;5093927;28;20043;-68
2023/08/12 10:17:26;;;;;;;0.52;0.52;;;;;;;27.13;46.12;100150.69;5093868;28;20135;-68
2023/08/12 10:20:14;;;;;;;0.70;0.70;;;;;;;27.12;45.78;100145.53;5094024;28;20119;-68
2023/08/12 10:22:46;;;;;;;0.40;0.35;;;;;;;27.24;45.53;100150.00;5094202;28;20052;-66
2023/08/12 10:25:18;;;;;;;0.50;0.50;;;;;;;27.16;44.71;100141.78;5093901;28;20051;-67
2023/08/12 10:27:47;;;;;;;0.47;0.47;;;;;;;27.17;44.92;100143.47;5093966;28;20062;-68
2023/08/12 10:30:16;;;;;;;0.60;0.60;;;;;;;27.23;45.11;100148.34;5093586;28;20102;-68
2023/08/12 10:32:47;;;;;;;0.50;0.50;;;;;;;27.34;45.37;100151.13;5093843;28;20036;-69
2023/08/12 10:35:16;;;;;;;1.63;0.77;;;;;;;27.37;45.37;100148.34;5093692;28;20040;-67
2023/08/12 10:37:51;;;;;;;0.40;0.40;;;;;;;27.43;44.85;100145.34;5093912;28;20032;-68
2023/08/12 10:40:23;;;;;;;0.70;0.70;;;;;;;27.57;44.69;100137.44;5093673;28;20517;-66
2023/08/12 10:42:52;;;;;;;0.55;0.55;;;;;;;27.63;44.11;100139.69;5093644;28;20047;-64
2023/08/12 10:45:21;;;;;;;0.55;0.55;;;;;;;27.52;44.24;100139.50;5093619;28;20547;-65
2023/08/12 10:48:10;;;;;;;0.63;0.63;;;;;;;27.61;44.61;100138.94;5093922;28;20121;-68
2023/08/12 10:50:45;;;;;;;0.32;0.32;;;;;;;27.82;44.61;100128.84;5093434;28;20040;-67
2023/08/12 10:53:29;;;;;;;0.47;0.47;;;;;;;28.03;44.80;100126.63;5093520;28;20102;-68
2023/08/12 10:56:01;;;;;;;0.47;0.47;;;;;;;28.13;44.53;100125.94;5093502;28;20107;-65
2023/08/12 10:58:46;;;;;;;0.50;0.50;;;;;;;28.01;43.66;100125.91;5092636;28;20048;-64
2023/08/12 11:01:18;;;;;;;0.65;0.60;;;;;;;28.07;43.20;100122.91;5093421;28;20044;-67
2023/08/12 11:03:49;;;;;;;0.40;0.40;;;;;;;27.96;42.80;100117.44;5094435;28;20486;-67
2023/08/12 11:06:21;;;;;;;0.73;0.70;;;;;;;28.02;43.09;100114.47;5093761;28;20067;-66
2023/08/12 11:08:53;;;;;;;0.57;0.57;;;;;;;28.06;43.33;100118.56;5093328;28;20068;-66
2023/08/12 11:11:24;;;;;;;0.73;0.73;;;;;;;28.11;43.92;100121.75;5093309;28;20055;-66
2023/08/12 11:13:55;;;;;;;0.82;0.82;;;;;;;28.23;43.63;100116.53;5093318;28;20494;-67
2023/08/12 11:16:35;;;;;;;0.73;0.60;;;;;;;28.27;43.05;100111.91;5093304;28;20048;-68
2023/08/12 11:19:04;;;;;;;1.25;0.80;;;;;;;28.33;43.35;100107.09;5093692;28;20063;-68
2023/08/12 11:21:37;;;;;;;0.57;0.57;;;;;;;28.49;43.98;100104.28;5093183;28;20040;-67
2023/08/12 11:24:06;;;;;;;0.55;0.55;;;;;;;28.57;43.05;100104.59;5093916;28;20059;-66
2023/08/12 11:26:38;;;;;;;0.60;0.60;;;;;;;28.63;42.70;100104.19;5093442;28;20044;-65
2023/08/12 11:29:10;;;;;;;0.40;0.40;;;;;;;28.64;42.42;100105.06;5093371;28;20040;-66
2023/08/12 11:31:40;;;;;;;0.70;0.60;;;;;;;28.53;42.14;100092.59;5093285;28;20036;-65
2023/08/12 11:34:09;;;;;;;0.50;0.50;;;;;;;28.41;42.12;100098.72;5093144;28;20067;-64
2023/08/12 11:36:37;;;;;;;2.05;1.05;;;;;;;28.37;42.62;100091.97;5093165;28;20123;-66
2023/08/12 11:39:06;;;;;;;0.77;0.60;;;;;;;28.38;42.62;100084.00;5093554;28;20052;-70
2023/08/12 11:41:37;;;;;;;0.40;0.40;;;;;;;28.44;42.78;100087.97;5094420;28;20040;-67